Time;durP1;ratioP1;P1;durP2;ratioP2;P2;SDS_P1;SDS_P2;PMS_P1;PMS_P2;Temp;Humidity;BMP_temperature;BMP_pressure;BME280_temperature;BME280_humidity;BME280_pressure;Samples;Min_cycle;Max_cycle;Signal;HPM_P1;HPM_P2
2023/09/18 00:00:51;;;;;;;6.30;3.10;;;;;;;13.61;92.21;96141.66;107113;1273;22594;-77
2023/09/18 00:03:37;;;;;;;6.40;2.90;;;;;;;13.66;92.85;96143.33;106830;1273;22521;-77
2023/09/18 00:06:06;;;;;;;9.00;4.10;;;;;;;13.66;92.70;96143.15;106990;1273;25328;-77
2023/09/18 00:08:35;;;;;;;5.00;2.70;;;;;;;13.68;93.05;96144.34;106928;1273;24200;-77
2023/09/18 00:11:03;;;;;;;4.90;2.70;;;;;;;13.68;92.93;96145.73;106955;1273;24086;-77
2023/09/18 00:13:31;;;;;;;7.20;2.00;;;;;;;13.70;92.62;96147.47;107052;1273;22633;-77
2023/09/18 00:15:59;;;;;;;4.70;2.40;;;;;;;13.67;92.27;96144.35;107009;1272;23011;-77
2023/09/18 00:18:28;;;;;;;7.80;2.40;;;;;;;13.64;92.70;96143.17;107162;1272;22781;-77
2023/09/18 00:20:56;;;;;;;4.50;1.90;;;;;;;13.67;92.91;96147.36;107078;1273;24346;-77
2023/09/18 00:23:24;;;;;;;4.70;2.80;;;;;;;13.68;92.65;96146.98;106931;1273;22508;-77
2023/09/18 00:25:52;;;;;;;3.60;2.40;;;;;;;13.64;92.32;96143.00;106973;1272;22527;-77
2023/09/18 00:28:20;;;;;;;8.30;2.70;;;;;;;13.61;92.52;96141.30;107231;1273;24393;-77
2023/09/18 00:30:50;;;;;;;9.70;3.10;;;;;;;13.63;92.60;96136.47;107000;1273;25503;-76
2023/09/18 00:33:19;;;;;;;5.80;2.80;;;;;;;13.63;92.77;96138.41;106959;1273;22527;-77
2023/09/18 00:35:49;;;;;;;4.10;3.20;;;;;;;13.70;93.03;96135.63;106880;1272;25350;-76
2023/09/18 00:38:19;;;;;;;8.80;3.10;;;;;;;13.68;92.95;96134.78;106897;1273;22566;-76
2023/09/18 00:40:48;;;;;;;6.00;2.30;;;;;;;13.68;93.31;96133.20;107050;1273;22669;-76
2023/09/18 00:43:17;;;;;;;5.70;2.70;;;;;;;13.69;93.35;96132.30;106887;1272;22524;-77
2023/09/18 00:45:48;;;;;;;8.90;2.80;;;;;;;13.77;93.43;96133.88;107027;1272;24038;-77
2023/09/18 00:48:16;;;;;;;7.90;2.70;;;;;;;13.79;92.79;96132.26;106728;1262;24202;-77
2023/09/18 00:50:45;;;;;;;7.40;2.90;;;;;;;13.73;91.92;96132.02;107000;1273;24278;-77
2023/09/18 00:53:19;;;;;;;13.70;2.80;;;;;;;13.63;92.44;96132.96;107009;1273;22564;-77
2023/09/18 00:55:48;;;;;;;5.80;2.60;;;;;;;13.56;92.67;96132.20;107099;1273;22527;-77
2023/09/18 00:58:16;;;;;;;6.00;2.90;;;;;;;13.55;92.77;96130.81;106841;1273;22746;-77
2023/09/18 01:00:44;;;;;;;7.30;3.10;;;;;;;13.53;93.16;96128.77;106975;1273;22716;-77
2023/09/18 01:03:12;;;;;;;8.90;2.90;;;;;;;13.50;92.86;96126.50;106806;1273;22727;-77
2023/09/18 01:05:41;;;;;;;5.60;3.20;;;;;;;13.50;93.26;96127.75;106791;1273;22516;-77
2023/09/18 01:08:09;;;;;;;6.70;3.20;;;;;;;13.45;92.61;96130.17;107145;1273;22565;-77
2023/09/18 01:10:52;;;;;;;8.50;3.20;;;;;;;13.36;92.94;96126.27;107036;1272;25393;-78
2023/09/18 01:13:30;;;;;;;12.40;3.80;;;;;;;13.32;93.10;96123.00;107090;1272;25378;-77
2023/09/18 01:16:06;;;;;;;12.80;3.80;;;;;;;13.25;92.82;96122.61;107266;1272;24256;-77
2023/09/18 01:18:34;;;;;;;6.40;3.30;;;;;;;13.18;92.67;96121.14;106964;1273;25354;-76
2023/09/18 01:21:02;;;;;;;4.40;3.40;;;;;;;13.16;92.84;96120.83;106810;1273;24211;-76
2023/09/18 01:23:30;;;;;;;5.60;3.50;;;;;;;13.16;93.04;96120.30;106867;1273;25409;-77
2023/09/18 01:25:58;;;;;;;7.60;3.60;;;;;;;13.15;93.31;96118.56;107001;1272;22523;-76
2023/09/18 01:28:26;;;;;;;11.90;3.50;;;;;;;13.13;93.26;96121.41;106910;1273;22527;-77
2023/09/18 01:30:55;;;;;;;4.60;3.90;;;;;;;13.08;93.40;96120.11;106961;1272;22580;-76
2023/09/18 01:33:24;;;;;;;6.80;3.90;;;;;;;13.03;93.76;96119.33;107061;1273;25384;-77
2023/09/18 01:35:55;;;;;;;11.30;3.40;;;;;;;12.97;93.82;96113.79;107134;1272;25343;-77
2023/09/18 01:38:24;;;;;;;5.40;2.90;;;;;;;12.94;93.97;96114.02;107059;1273;22607;-77
2023/09/18 01:40:54;;;;;;;5.60;3.20;;;;;;;12.87;94.17;96115.58;107026;1273;22524;-77
2023/09/18 01:43:22;;;;;;;9.00;3.30;;;;;;;12.82;93.78;96111.09;106920;1273;22537;-77
2023/09/18 01:45:50;;;;;;;5.80;3.00;;;;;;;12.78;94.37;96107.27;107143;1273;22510;-77
2023/09/18 01:48:18;;;;;;;7.50;3.10;;;;;;;12.77;94.85;96110.48;107139;1273;25526;-77
2023/09/18 01:50:47;;;;;;;6.20;3.10;;;;;;;12.75;94.66;96109.45;107136;1272;24470;-77
2023/09/18 01:53:15;;;;;;;10.90;3.00;;;;;;;12.73;94.99;96107.89;106859;1273;22775;-77
2023/09/18 01:55:44;;;;;;;5.70;2.70;;;;;;;12.70;94.67;96106.02;106873;1273;25552;-76
2023/09/18 01:58:14;;;;;;;8.50;2.70;;;;;;;12.70;94.92;96105.65;107144;1272;24464;-77
2023/09/18 02:00:44;;;;;;;9.40;2.70;;;;;;;12.71;94.74;96101.92;107083;1272;25331;-76
2023/09/18 02:03:13;;;;;;;4.80;3.00;;;;;;;12.74;95.13;96105.92;106942;1272;22516;-77
2023/09/18 02:06:01;;;;;;;6.30;2.70;;;;;;;12.82;95.27;96104.02;106880;1273;24497;-76
2023/09/18 02:08:29;;;;;;;7.50;2.50;;;;;;;12.86;94.86;96104.48;106801;1272;22643;-76
2023/09/18 02:10:58;;;;;;;3.00;2.40;;;;;;;12.83;94.19;96101.70;106983;1272;25408;-76
2023/09/18 02:13:26;;;;;;;4.50;2.00;;;;;;;12.78;93.29;96107.29;106919;1272;23135;-77
2023/09/18 02:15:55;;;;;;;5.90;2.20;;;;;;;12.72;93.67;96103.14;107095;1272;22628;-76
2023/09/18 02:18:23;;;;;;;5.50;2.90;;;;;;;12.74;94.09;96101.88;106935;1273;22633;-77
2023/09/18 02:20:51;;;;;;;3.20;2.60;;;;;;;12.74;94.22;96099.94;106988;1272;22630;-76
2023/09/18 02:23:20;;;;;;;8.20;3.10;;;;;;;12.73;94.26;96099.95;106990;1272;24244;-76
2023/09/18 02:25:56;;;;;;;7.50;2.70;;;;;;;12.80;94.96;96096.48;106871;1273;22535;-77
2023/09/18 02:28:24;;;;;;;3.50;2.30;;;;;;;12.89;94.71;96100.71;106939;1272;22521;-77
2023/09/18 02:30:52;;;;;;;6.20;2.60;;;;;;;12.93;93.96;96099.77;106984;1272;22520;-76
2023/09/18 02:33:20;;;;;;;6.70;2.30;;;;;;;12.88;93.08;96102.66;107182;1272;22589;-76
2023/09/18 02:35:49;;;;;;;8.40;2.40;;;;;;;12.79;93.01;96103.19;107151;1272;23893;-76
2023/09/18 02:38:17;;;;;;;5.40;2.30;;;;;;;12.74;92.85;96105.05;106918;1273;24266;-76
2023/09/18 02:40:45;;;;;;;3.10;2.10;;;;;;;12.67;92.77;96107.29;107154;1273;25266;-76
2023/09/18 02:43:13;;;;;;;7.70;2.60;;;;;;;12.67;93.50;96111.36;106974;1273;25431;-77
2023/09/18 02:45:42;;;;;;;3.60;2.60;;;;;;;12.66;94.23;96111.03;106960;1272;26761;-77
2023/09/18 02:48:10;;;;;;;7.00;2.70;;;;;;;12.66;94.10;96110.33;107174;1272;25459;-77
2023/09/18 02:50:38;;;;;;;5.00;2.40;;;;;;;12.67;94.50;96107.11;106789;1273;22546;-77
2023/09/18 02:53:11;;;;;;;3.80;2.40;;;;;;;12.69;94.36;96107.09;106974;1272;25489;-77
2023/09/18 02:55:40;;;;;;;3.80;2.00;;;;;;;12.66;93.78;96108.55;107167;1272;24385;-77
2023/09/18 02:58:10;;;;;;;3.80;1.70;;;;;;;12.61;93.15;96105.65;106920;1272;22633;-76
2023/09/18 03:00:45;;;;;;;3.10;2.10;;;;;;;12.50;92.95;96108.33;107079;1272;25516;-77
2023/09/18 03:03:15;;;;;;;2.70;2.00;;;;;;;12.43;93.05;96105.61;106804;1272;25529;-76
2023/09/18 03:05:44;;;;;;;5.20;2.20;;;;;;;12.39;93.26;96107.27;106801;1273;25350;-76
2023/09/18 03:08:14;;;;;;;5.60;2.60;;;;;;;12.39;93.36;96108.69;107087;1273;25477;-76
2023/09/18 03:10:44;;;;;;;5.90;2.00;;;;;;;12.40;94.29;96107.26;106979;1273;25470;-76
2023/09/18 03:13:15;;;;;;;3.40;1.90;;;;;;;12.45;94.20;96110.87;106811;1273;22606;-76
2023/09/18 03:15:49;;;;;;;4.60;2.00;;;;;;;12.56;94.27;96110.70;106796;1273;24671;-76
2023/09/18 03:18:17;;;;;;;5.70;2.00;;;;;;;12.55;92.68;96108.05;107109;1273;22624;-77
2023/09/18 03:20:46;;;;;;;3.90;2.20;;;;;;;12.47;92.51;96111.55;106818;1273;22726;-77
2023/09/18 03:23:14;;;;;;;6.50;2.60;;;;;;;12.42;92.91;96110.40;107047;1273;22535;-77
2023/09/18 03:25:42;;;;;;;5.50;2.80;;;;;;;12.46;93.68;96112.62;106789;1273;287450;-77
2023/09/18 03:28:18;;;;;;;3.10;1.90;;;;;;;12.41;92.94;96111.46;106814;1273;25408;-78
2023/09/18 03:30:46;;;;;;;7.30;2.40;;;;;;;12.32;92.25;96110.73;106833;1273;25522;-77
2023/09/18 03:33:14;;;;;;;8.70;3.10;;;;;;;12.31;92.96;96110.23;106788;1273;24464;-77
2023/09/18 03:35:50;;;;;;;3.90;2.20;;;;;;;12.38;93.63;96108.89;107062;1273;25239;-77
2023/09/18 03:38:22;;;;;;;7.00;2.40;;;;;;;12.42;93.45;96114.65;107165;1273;22636;-77
2023/09/18 03:40:51;;;;;;;5.10;3.30;;;;;;;12.39;93.10;96111.67;106878;1273;24369;-77
2023/09/18 03:43:21;;;;;;;6.40;2.20;;;;;;;12.41;93.67;96118.36;107028;1273;24374;-76
2023/09/18 03:45:49;;;;;;;6.50;2.00;;;;;;;12.48;93.95;96120.35;106792;1273;25121;-77
2023/09/18 03:48:19;;;;;;;3.20;2.00;;;;;;;12.48;93.19;96117.17;106987;1273;25481;-77
2023/09/18 03:50:48;;;;;;;4.10;2.10;;;;;;;12.49;92.76;96119.45;106908;1273;22638;-77
2023/09/18 03:53:17;;;;;;;5.00;2.30;;;;;;;12.43;92.44;96124.67;106994;1273;24303;-77
2023/09/18 03:55:45;;;;;;;4.30;2.60;;;;;;;12.36;92.61;96118.79;107037;1273;23139;-76
2023/09/18 03:58:13;;;;;;;12.70;3.40;;;;;;;12.35;93.08;96122.51;107172;1273;24377;-76
2023/09/18 04:00:42;;;;;;;5.70;2.60;;;;;;;12.45;93.57;96121.98;107132;1273;25362;-77
2023/09/18 04:03:10;;;;;;;7.60;3.30;;;;;;;12.46;92.58;96120.39;106690;1273;24217;-77
2023/09/18 04:05:39;;;;;;;6.30;3.00;;;;;;;12.41;92.97;96118.17;107095;1250;25400;-77
2023/09/18 04:08:07;;;;;;;3.30;2.50;;;;;;;12.35;92.98;96115.45;106838;1273;22614;-77
2023/09/18 04:10:35;;;;;;;4.80;2.00;;;;;;;12.25;92.24;96114.75;107131;1273;22620;-77
2023/09/18 04:13:04;;;;;;;4.70;2.40;;;;;;;12.13;92.13;96113.70;106986;1272;24040;-76
2023/09/18 04:15:32;;;;;;;10.80;3.60;;;;;;;12.12;93.02;96114.43;107028;1272;22652;-76
2023/09/18 04:18:01;;;;;;;3.30;3.00;;;;;;;12.21;93.63;96113.05;107056;1272;22566;-76
2023/09/18 04:20:29;;;;;;;5.40;3.20;;;;;;;12.20;93.11;96113.77;106850;1273;24297;-76
2023/09/18 04:23:19;;;;;;;4.50;2.80;;;;;;;12.16;92.99;96112.79;106784;1273;22745;-76
2023/09/18 04:25:49;;;;;;;5.20;3.20;;;;;;;12.12;92.78;96111.80;106834;1273;25486;-76
2023/09/18 04:28:19;;;;;;;9.20;3.30;;;;;;;12.05;92.91;96107.14;106891;1273;25773;-76
2023/09/18 04:30:47;;;;;;;4.60;3.10;;;;;;;12.05;93.76;96108.54;106764;1273;25479;-76
2023/09/18 04:33:16;;;;;;;8.80;3.40;;;;;;;12.07;93.68;96108.69;106871;1273;22524;-76
2023/09/18 04:35:45;;;;;;;10.90;3.40;;;;;;;12.10;93.58;96116.05;106847;1273;25488;-76
2023/09/18 04:38:15;;;;;;;7.70;4.00;;;;;;;12.12;93.68;96115.65;107143;1272;22525;-77
2023/09/18 04:40:45;;;;;;;8.60;2.90;;;;;;;12.12;93.87;96120.08;107157;1272;22541;-77
2023/09/18 04:43:14;;;;;;;8.20;2.50;;;;;;;12.09;93.76;96124.16;107023;1272;25402;-78
2023/09/18 04:45:44;;;;;;;4.60;3.10;;;;;;;12.10;93.99;96123.64;106912;1273;22997;-78
2023/09/18 04:48:13;;;;;;;5.70;3.60;;;;;;;12.09;93.98;96118.17;106988;1273;25459;-77
2023/09/18 04:50:42;;;;;;;5.40;4.10;;;;;;;12.12;94.39;96118.31;106950;1272;22544;-77
2023/09/18 04:53:10;;;;;;;23.50;11.70;;;;;;;12.23;95.12;96118.13;106908;1273;22518;-77
2023/09/18 04:55:38;;;;;;;3.60;3.10;;;;;;;12.33;94.67;96120.09;106760;1273;25577;-77
2023/09/18 04:58:07;;;;;;;4.00;3.00;;;;;;;12.45;94.99;96120.93;106954;1272;24605;-77
2023/09/18 05:00:36;;;;;;;4.10;3.10;;;;;;;12.58;95.06;96121.58;107929;1272;22594;-79
2023/09/18 05:03:05;;;;;;;6.40;3.00;;;;;;;12.72;94.77;96122.02;107082;1273;22628;-77
2023/09/18 05:05:34;;;;;;;3.20;2.10;;;;;;;12.87;94.99;96116.98;107928;1272;22544;-76
2023/09/18 05:08:07;;;;;;;4.80;2.10;;;;;;;13.03;94.96;96111.89;107206;1273;22596;-75
2023/09/18 05:10:37;;;;;;;3.00;2.70;;;;;;;13.18;94.53;96108.25;107203;1272;22503;-77
2023/09/18 05:13:05;;;;;;;4.50;2.40;;;;;;;13.32;94.26;96107.63;107212;1272;22649;-77
2023/09/18 05:15:33;;;;;;;4.30;2.30;;;;;;;13.46;94.12;96102.39;107095;1272;22516;-76
2023/09/18 05:18:03;;;;;;;4.30;2.50;;;;;;;13.63;94.03;96105.73;107385;1272;25369;-77
2023/09/18 05:20:34;;;;;;;4.20;2.60;;;;;;;13.76;93.81;96104.55;107630;1272;22515;-77
2023/09/18 05:23:02;;;;;;;6.90;3.30;;;;;;;13.90;93.48;96102.45;107530;1273;24225;-77
2023/09/18 05:25:33;;;;;;;5.40;3.00;;;;;;;14.04;93.16;96106.36;106874;1273;22524;-76
2023/09/18 05:28:04;;;;;;;3.60;3.00;;;;;;;14.15;92.54;96105.73;107054;1272;22770;-77
2023/09/18 05:30:35;;;;;;;2.90;2.50;;;;;;;14.24;92.53;96100.22;107035;1272;22656;-78
2023/09/18 05:33:07;;;;;;;6.20;2.70;;;;;;;14.35;92.37;96097.30;107753;1272;25423;-77
2023/09/18 05:35:39;;;;;;;3.80;3.20;;;;;;;14.43;92.09;96097.80;107066;1272;22607;-78
2023/09/18 05:38:10;;;;;;;4.40;2.80;;;;;;;14.48;91.23;96098.01;107183;1272;22534;-77
2023/09/18 05:40:40;;;;;;;6.40;2.90;;;;;;;14.57;91.63;96103.84;107417;1272;22653;-77
2023/09/18 05:43:08;;;;;;;5.00;3.40;;;;;;;14.67;91.85;96099.67;107455;1272;22555;-78
2023/09/18 05:45:36;;;;;;;5.00;3.10;;;;;;;14.76;91.87;96093.79;107852;1272;25439;-75
2023/09/18 05:48:05;;;;;;;4.60;3.20;;;;;;;14.87;91.80;96095.61;107107;1273;25310;-76
2023/09/18 05:50:38;;;;;;;5.30;3.30;;;;;;;14.95;91.62;96093.08;106891;1272;25411;-75
2023/09/18 05:53:06;;;;;;;7.30;3.40;;;;;;;15.00;91.62;96088.33;107161;1272;24436;-79
2023/09/18 05:55:34;;;;;;;5.10;3.30;;;;;;;15.05;91.41;96085.36;107291;1272;25572;-77
2023/09/18 05:58:04;;;;;;;4.60;3.20;;;;;;;15.10;91.34;96077.96;107169;1273;22530;-77
2023/09/18 06:00:33;;;;;;;8.20;4.10;;;;;;;15.15;91.23;96076.38;106770;1273;22535;-78
2023/09/18 06:03:01;;;;;;;8.40;3.20;;;;;;;15.15;90.85;96073.90;107197;1273;25350;-80
2023/09/18 06:05:31;;;;;;;6.30;3.30;;;;;;;15.18;91.07;96070.45;107155;1273;25342;-77
2023/09/18 06:08:00;;;;;;;5.30;3.30;;;;;;;15.27;91.68;96072.31;107773;1273;22596;-77
2023/09/18 06:10:28;;;;;;;7.20;3.70;;;;;;;15.41;91.97;96077.23;107153;1273;22685;-78
2023/09/18 06:12:57;;;;;;;6.00;3.80;;;;;;;15.54;91.91;96076.13;107219;1273;22586;-78
2023/09/18 06:15:25;;;;;;;6.40;3.80;;;;;;;15.65;91.65;96076.52;107287;1273;24276;-77
2023/09/18 06:17:54;;;;;;;9.20;4.30;;;;;;;15.74;91.38;96072.02;107380;1273;25425;-78
2023/09/18 06:20:22;;;;;;;7.20;3.40;;;;;;;15.84;91.53;96067.59;107059;1272;25287;-78
2023/09/18 06:22:50;;;;;;;5.70;3.60;;;;;;;15.95;91.37;96065.49;107255;1273;25290;-79
2023/09/18 06:25:20;;;;;;;4.70;3.70;;;;;;;16.05;91.46;96066.58;107466;1273;24362;-79
2023/09/18 06:27:48;;;;;;;4.80;3.20;;;;;;;16.18;91.44;96071.84;107127;1273;24343;-78
2023/09/18 06:30:17;;;;;;;4.40;3.80;;;;;;;16.29;91.32;96077.48;107236;1272;24372;-77
2023/09/18 06:32:45;;;;;;;7.00;3.50;;;;;;;16.39;90.90;96072.20;107127;1273;22527;-77
2023/09/18 06:35:13;;;;;;;5.00;3.10;;;;;;;16.44;90.12;96072.91;107056;1273;22512;-78
2023/09/18 06:37:41;;;;;;;7.40;3.90;;;;;;;16.52;90.39;96066.26;106812;1273;22528;-79
2023/09/18 06:40:10;;;;;;;4.20;3.70;;;;;;;16.66;90.40;96068.25;106859;1273;22637;-77
2023/09/18 06:42:39;;;;;;;6.50;3.80;;;;;;;16.77;90.22;96065.05;106988;1273;24040;-77
2023/09/18 06:45:08;;;;;;;6.20;4.10;;;;;;;16.87;90.17;96065.41;107001;1273;25341;-78
2023/09/18 06:47:37;;;;;;;4.50;4.10;;;;;;;17.01;90.40;96066.52;107063;1272;22628;-78
2023/09/18 06:50:05;;;;;;;5.30;4.30;;;;;;;17.13;90.16;96063.39;107145;1273;22560;-78
2023/09/18 06:52:34;;;;;;;7.30;3.80;;;;;;;17.26;90.09;96064.34;107020;1272;22521;-77
2023/09/18 06:55:02;;;;;;;8.40;4.00;;;;;;;17.35;89.57;96064.00;106980;1273;25857;-78
2023/09/18 06:57:30;;;;;;;5.00;4.40;;;;;;;17.41;89.41;96060.40;106931;1263;22528;-78
2023/09/18 06:59:58;;;;;;;7.20;5.00;;;;;;;17.51;89.27;96066.07;107104;1271;22549;-78
2023/09/18 07:02:27;;;;;;;6.40;4.50;;;;;;;17.60;89.05;96069.48;107019;1273;22638;-78
2023/09/18 07:04:55;;;;;;;7.40;5.10;;;;;;;17.68;89.02;96070.20;106958;1273;23906;-79
2023/09/18 07:07:25;;;;;;;6.50;4.70;;;;;;;17.75;88.69;96064.97;107196;1273;22550;-78
2023/09/18 07:09:54;;;;;;;7.80;5.10;;;;;;;17.83;88.66;96061.11;106994;1273;22646;-78
2023/09/18 07:12:32;;;;;;;6.30;4.70;;;;;;;17.92;88.73;96057.17;107406;1273;23351;-79
2023/09/18 07:15:03;;;;;;;7.80;4.90;;;;;;;18.03;88.54;96059.61;107413;1273;22636;-79
2023/09/18 07:17:34;;;;;;;9.10;5.30;;;;;;;18.12;88.41;96060.65;107249;1273;24221;-78
2023/09/18 07:20:13;;;;;;;6.80;5.00;;;;;;;18.22;88.24;96058.11;107017;1273;25424;-77
2023/09/18 07:22:47;;;;;;;7.40;4.70;;;;;;;18.33;88.08;96055.33;107382;1273;22539;-79
2023/09/18 07:25:16;;;;;;;6.90;4.70;;;;;;;18.44;87.78;96052.22;107680;1273;23898;-77
2023/09/18 07:27:45;;;;;;;5.10;4.10;;;;;;;18.56;87.43;96051.70;107419;1273;22640;-77
2023/09/18 07:30:19;;;;;;;4.80;4.10;;;;;;;18.69;87.31;96051.66;107070;1273;25351;-76
2023/09/18 07:32:47;;;;;;;6.90;4.40;;;;;;;18.84;86.75;96050.02;107641;1273;22553;-77
2023/09/18 07:35:16;;;;;;;5.30;4.60;;;;;;;18.97;86.64;96051.89;107362;1273;22580;-78
2023/09/18 07:37:46;;;;;;;7.60;4.70;;;;;;;19.14;86.63;96045.46;107053;1273;22512;-80
2023/09/18 07:40:16;;;;;;;6.60;4.80;;;;;;;19.32;86.43;96040.52;107603;1273;24047;-78
2023/09/18 07:42:44;;;;;;;9.90;4.70;;;;;;;19.48;86.17;96043.88;107046;1273;23021;-77
2023/09/18 07:45:13;;;;;;;4.50;3.60;;;;;;;19.64;84.90;96043.71;107175;1273;24354;-83
2023/09/18 07:47:41;;;;;;;4.70;3.40;;;;;;;19.73;81.18;96040.99;107027;1273;24285;-79
2023/09/18 07:50:09;;;;;;;4.40;4.00;;;;;;;19.86;82.14;96034.81;107559;1273;23175;-80
2023/09/18 07:52:37;;;;;;;4.90;3.50;;;;;;;20.01;82.67;96037.82;107702;1273;22522;-80
2023/09/18 07:55:06;;;;;;;7.90;3.90;;;;;;;20.17;82.17;96040.63;107907;1262;22585;-78
2023/09/18 07:57:35;;;;;;;5.30;4.00;;;;;;;20.29;82.27;96038.27;107764;1273;22765;-78
2023/09/18 08:00:07;;;;;;;7.40;4.40;;;;;;;20.41;81.29;96033.70;107160;1273;22546;-77
2023/09/18 08:02:41;;;;;;;8.30;4.40;;;;;;;20.53;80.90;96029.56;106994;1273;22614;-77
2023/09/18 08:05:11;;;;;;;4.90;4.40;;;;;;;20.63;80.57;96027.27;107168;1266;22576;-77
2023/09/18 08:07:40;;;;;;;5.20;4.70;;;;;;;20.75;80.54;96026.66;107183;1273;24366;-78
2023/09/18 08:10:09;;;;;;;6.50;4.30;;;;;;;20.88;79.58;96030.09;107166;1273;24039;-80
2023/09/18 08:12:39;;;;;;;5.90;4.30;;;;;;;21.01;79.38;96028.52;107287;1256;22517;-80
2023/09/18 08:15:09;;;;;;;4.70;4.00;;;;;;;21.08;77.78;96027.95;107271;1273;23877;-80
2023/09/18 08:17:37;;;;;;;5.80;4.10;;;;;;;21.10;75.74;96028.39;107021;1262;25335;-80
2023/09/18 08:20:12;;;;;;;5.40;4.40;;;;;;;21.14;74.41;96021.34;107380;1273;22559;-80
2023/09/18 08:22:40;;;;;;;4.90;4.20;;;;;;;21.27;75.87;96022.10;107198;1273;22597;-79
2023/09/18 08:25:10;;;;;;;4.60;4.00;;;;;;;21.43;76.38;96023.58;107175;1273;25345;-78
2023/09/18 08:27:41;;;;;;;6.70;4.30;;;;;;;21.52;74.21;96023.65;107064;1273;25501;-78
2023/09/18 08:30:11;;;;;;;6.30;4.50;;;;;;;21.60;73.86;96022.13;107367;1273;22540;-79
2023/09/18 08:32:47;;;;;;;7.20;5.10;;;;;;;21.67;74.33;96019.23;107150;1273;22640;-80
2023/09/18 08:35:15;;;;;;;8.60;4.50;;;;;;;21.76;74.03;96021.95;107326;1273;25402;-81
2023/09/18 08:37:43;;;;;;;6.10;4.80;;;;;;;21.84;74.34;96023.29;107532;1273;23018;-80
2023/09/18 08:40:13;;;;;;;5.10;4.40;;;;;;;21.99;74.73;96021.73;107208;1273;24050;-78
2023/09/18 08:42:47;;;;;;;6.40;5.00;;;;;;;22.14;74.30;96019.79;107174;1273;22536;-79
2023/09/18 08:45:25;;;;;;;5.20;4.60;;;;;;;22.24;71.78;96018.53;107091;1273;22569;-77
2023/09/18 08:47:55;;;;;;;4.50;4.10;;;;;;;22.29;70.05;96011.41;107144;1273;22546;-78
2023/09/18 08:50:25;;;;;;;4.80;4.30;;;;;;;22.34;70.23;96012.73;107137;1273;22648;-80
2023/09/18 08:52:55;;;;;;;5.90;4.50;;;;;;;22.43;70.34;96013.82;107571;1273;24221;-77
2023/09/18 08:55:24;;;;;;;14.10;4.80;;;;;;;22.56;70.19;96013.27;107001;1273;23919;-78
2023/09/18 08:57:54;;;;;;;6.50;4.60;;;;;;;22.66;70.08;96011.04;107251;1273;22609;-77
2023/09/18 09:00:22;;;;;;;7.20;4.30;;;;;;;22.80;70.52;96014.50;107250;1250;22596;-80
2023/09/18 09:02:52;;;;;;;4.90;4.10;;;;;;;22.89;68.99;96009.45;107238;1273;24297;-79
2023/09/18 09:05:22;;;;;;;14.30;4.60;;;;;;;22.91;68.30;96006.34;106977;1273;24250;-79
2023/09/18 09:07:50;;;;;;;8.30;4.40;;;;;;;22.97;68.34;96006.83;106928;1273;22691;-78
2023/09/18 09:10:18;;;;;;;6.20;4.30;;;;;;;23.12;68.23;96005.59;106902;1273;22524;-77
2023/09/18 09:12:53;;;;;;;5.60;4.10;;;;;;;23.19;66.03;96010.02;107268;1273;22573;-79
2023/09/18 09:15:27;;;;;;;6.60;4.40;;;;;;;23.21;65.52;96006.29;107177;1273;22510;-77
2023/09/18 09:18:06;;;;;;;5.10;4.60;;;;;;;23.28;66.14;96008.90;106967;1273;25306;-77
2023/09/18 09:20:36;;;;;;;5.00;4.50;;;;;;;23.35;64.94;96007.19;106976;1260;22526;-78
2023/09/18 09:23:06;;;;;;;4.90;4.30;;;;;;;23.46;64.40;96007.56;106965;1273;25508;-76
2023/09/18 09:25:35;;;;;;;7.90;4.70;;;;;;;23.59;65.26;96003.33;106955;1273;24343;-77
2023/09/18 09:28:07;;;;;;;5.20;4.70;;;;;;;23.75;64.08;95998.60;106875;1273;22540;-77
2023/09/18 09:30:36;;;;;;;6.90;4.30;;;;;;;23.82;64.01;95998.15;106904;1273;24357;-77
2023/09/18 09:33:06;;;;;;;6.10;4.70;;;;;;;23.89;62.27;95997.15;106965;1273;22543;-76
2023/09/18 09:35:36;;;;;;;8.00;4.70;;;;;;;23.82;61.79;95988.64;106926;1273;25354;-77
2023/09/18 09:38:15;;;;;;;6.10;4.70;;;;;;;23.87;62.43;95984.31;106752;1273;24225;-78
2023/09/18 09:40:45;;;;;;;5.00;4.50;;;;;;;23.95;61.84;95988.30;107065;1273;25667;-78
2023/09/18 09:43:14;;;;;;;5.80;4.40;;;;;;;23.99;61.66;95982.46;107582;1273;22769;-78
2023/09/18 09:45:46;;;;;;;6.40;4.80;;;;;;;24.12;61.53;95986.29;108005;1273;22594;-78
2023/09/18 09:48:14;;;;;;;5.50;4.30;;;;;;;24.19;61.93;95984.03;107241;1273;25453;-78
2023/09/18 09:50:48;;;;;;;6.90;4.60;;;;;;;24.25;60.32;95984.36;107011;1273;22517;-78
2023/09/18 09:53:18;;;;;;;6.60;4.50;;;;;;;24.40;60.05;95982.46;106928;1273;24253;-78
2023/09/18 09:55:54;;;;;;;5.00;4.40;;;;;;;24.56;59.76;95983.75;107000;1273;22578;-76
2023/09/18 09:58:30;;;;;;;4.60;4.20;;;;;;;24.69;58.24;95977.42;107124;1273;25391;-76
2023/09/18 10:01:05;;;;;;;6.00;4.40;;;;;;;24.66;58.16;95974.12;107139;1273;25294;-77
2023/09/18 10:03:34;;;;;;;4.70;4.30;;;;;;;24.58;58.64;95977.13;106861;1273;22528;-77
2023/09/18 10:06:06;;;;;;;6.40;4.30;;;;;;;24.53;58.88;95976.59;106896;1273;23922;-77
2023/09/18 10:08:36;;;;;;;4.70;4.20;;;;;;;24.32;57.73;95975.46;106938;1262;24260;-76
2023/09/18 10:11:11;;;;;;;5.40;4.40;;;;;;;24.16;59.28;95978.64;107073;1273;22562;-77
2023/09/18 10:13:56;;;;;;;7.00;4.40;;;;;;;24.06;57.95;95972.70;107190;1266;22524;-77
2023/09/18 10:16:27;;;;;;;4.70;4.20;;;;;;;23.83;57.83;95971.85;106953;1273;25600;-78
2023/09/18 10:19:25;;;;;;;5.30;4.70;;;;;;;23.75;59.48;95968.96;106915;1273;23873;-77
2023/09/18 10:22:20;;;;;;;5.80;4.30;;;;;;;23.64;58.79;95966.40;106865;1273;24372;-77
2023/09/18 10:24:51;;;;;;;6.20;4.50;;;;;;;23.93;59.52;95960.60;106779;1273;25405;-77
2023/09/18 10:27:22;;;;;;;8.00;4.30;;;;;;;24.27;57.50;95954.92;106927;1273;23169;-78
2023/09/18 10:29:54;;;;;;;5.10;4.30;;;;;;;24.44;56.61;95951.84;107070;1273;23016;-78
2023/09/18 10:32:28;;;;;;;5.80;4.40;;;;;;;24.29;57.51;95951.20;107040;1273;24470;-77
2023/09/18 10:34:59;;;;;;;5.90;4.50;;;;;;;24.14;57.40;95950.94;106935;1273;24263;-77
2023/09/18 10:37:30;;;;;;;5.00;4.50;;;;;;;24.08;57.62;95947.92;106853;1273;25391;-77
2023/09/18 10:40:00;;;;;;;6.00;4.40;;;;;;;24.25;56.93;95944.08;106915;1273;24366;-77
2023/09/18 10:42:30;;;;;;;4.60;4.20;;;;;;;24.49;58.02;95943.34;106933;1273;24266;-77
2023/09/18 10:44:58;;;;;;;7.10;4.40;;;;;;;24.53;57.24;95943.98;106905;1273;25405;-77
2023/09/18 10:47:27;;;;;;;7.60;4.30;;;;;;;24.59;57.52;95942.55;106937;1273;25294;-77
2023/09/18 10:49:56;;;;;;;7.40;5.00;;;;;;;24.67;57.78;95943.96;106994;1273;22519;-77
2023/09/18 10:52:24;;;;;;;7.30;4.70;;;;;;;24.53;55.97;95941.31;107167;1273;23878;-77
2023/09/18 10:54:52;;;;;;;5.10;4.60;;;;;;;24.48;55.04;95939.13;107128;1273;22516;-77
2023/09/18 10:57:21;;;;;;;6.50;4.50;;;;;;;24.95;56.67;95934.98;107124;1273;22762;-78
2023/09/18 10:59:54;;;;;;;5.30;4.40;;;;;;;25.53;56.38;95932.14;107150;1273;22627;-76
2023/09/18 11:02:24;;;;;;;5.40;4.10;;;;;;;26.05;54.44;95921.80;107093;1273;24410;-77
2023/09/18 11:04:54;;;;;;;5.20;4.40;;;;;;;26.50;53.63;95919.86;107181;1267;22508;-77
2023/09/18 11:07:24;;;;;;;4.60;4.10;;;;;;;27.01;51.20;95916.52;106845;1273;24037;-77
2023/09/18 11:09:52;;;;;;;5.40;4.30;;;;;;;27.44;51.33;95914.00;106940;1273;22558;-78
2023/09/18 11:12:44;;;;;;;6.20;4.10;;;;;;;27.89;50.47;95905.80;106943;1273;23914;-77
2023/09/18 11:15:31;;;;;;;4.20;3.60;;;;;;;28.25;47.38;95905.73;106766;1273;24305;-78
2023/09/18 11:18:02;;;;;;;4.90;4.30;;;;;;;28.60;46.54;95897.19;107005;1273;24276;-78
2023/09/18 11:20:39;;;;;;;7.30;3.90;;;;;;;28.88;43.83;95896.21;106935;1273;23883;-78
2023/09/18 11:23:18;;;;;;;4.60;3.80;;;;;;;29.07;42.19;95891.09;106908;1273;22570;-78
2023/09/18 11:25:52;;;;;;;5.40;4.10;;;;;;;29.17;41.86;95889.70;106981;1273;24708;-79
2023/09/18 11:28:25;;;;;;;4.40;3.80;;;;;;;29.45;42.60;95888.86;106994;1273;25494;-79
2023/09/18 11:31:00;;;;;;;4.50;4.10;;;;;;;29.76;42.24;95881.73;106906;1273;26523;-78
2023/09/18 11:33:39;;;;;;;6.00;3.70;;;;;;;30.13;40.98;95878.86;107016;1273;22763;-78
2023/09/18 11:36:12;;;;;;;3.70;3.40;;;;;;;30.49;39.60;95874.70;107106;1273;22524;-78
2023/09/18 11:38:56;;;;;;;4.50;3.80;;;;;;;30.72;40.48;95875.02;107145;1273;22659;-78